createdAt,value
2017-09-11T00:00:29.397Z,50.4
2017-09-11T00:01:31.191Z,50.3
2017-09-11T00:02:33.319Z,50.1
2017-09-11T00:03:35.450Z,50.2
2017-09-11T00:04:37.242Z,50.3
2017-09-11T00:05:39.035Z,50.3
2017-09-11T00:06:40.806Z,50.2
2017-09-11T00:07:42.578Z,50.2
2017-09-11T00:08:44.354Z,50
2017-09-11T00:09:46.481Z,50.2
2017-09-11T00:10:47.605Z,50.3
2017-09-11T00:11:49.067Z,50.1
2017-09-11T00:12:50.507Z,50.2
2017-09-11T00:13:51.950Z,49.9
2017-09-11T00:14:54.069Z,50.2
2017-09-11T00:15:55.863Z,50.2
2017-09-11T00:16:57.637Z,50.1
2017-09-11T00:17:59.099Z,50.1
2017-09-11T00:19:00.535Z,50.1
2017-09-11T00:20:02.329Z,50.3
2017-09-11T00:21:04.120Z,50.4
2017-09-11T00:22:05.914Z,49.9
2017-09-11T00:23:07.349Z,50.2
2017-09-11T00:24:08.787Z,50
2017-09-11T00:25:10.560Z,49.9
2017-09-11T00:26:12.021Z,50.2
2017-09-11T00:27:13.815Z,50.2
2017-09-11T00:28:15.605Z,50.1
2017-09-11T00:29:17.407Z,49.7
2017-09-11T00:30:18.834Z,50.1
2017-09-11T00:31:20.965Z,50
2017-09-11T00:32:22.423Z,49.7
2017-09-11T00:33:24.216Z,50
2017-09-11T00:34:25.673Z,50
2017-09-11T00:35:27.802Z,50
2017-09-11T00:36:29.260Z,49.9
2017-09-11T00:37:31.030Z,50.1
2017-09-11T00:38:32.824Z,49.8
2017-09-11T00:39:34.617Z,49.9
2017-09-11T00:40:36.389Z,50.1
2017-09-11T00:41:37.851Z,49.9
2017-09-11T00:42:39.981Z,49.7
2017-09-11T00:43:42.112Z,49.6
2017-09-11T00:44:43.545Z,49.7
2017-09-11T00:45:45.318Z,50
2017-09-11T00:46:46.753Z,50.1
2017-09-11T00:47:47.859Z,50.2
2017-09-11T00:48:49.982Z,50.1
2017-09-11T00:49:52.111Z,49.9
2017-09-11T00:50:54.237Z,50.1
2017-09-11T00:51:56.032Z,49.8
2017-09-11T00:52:57.823Z,50.1
2017-09-11T00:53:59.259Z,50.2
2017-09-11T00:55:01.050Z,49.8
2017-09-11T00:56:02.511Z,49.8
2017-09-11T00:57:04.303Z,50
2017-09-11T00:58:05.405Z,49.6
2017-09-11T00:59:07.200Z,50
2017-09-11T01:00:08.656Z,49.7
2017-09-11T01:01:10.785Z,49.6
2017-09-11T01:02:12.914Z,49.8
2017-09-11T01:03:14.707Z,49.8
2017-09-11T01:04:15.830Z,49.5
2017-09-11T01:05:17.267Z,49.5
2017-09-11T01:06:19.062Z,49.6
2017-09-11T01:07:21.188Z,49.6
2017-09-11T01:08:22.959Z,49.7
2017-09-11T01:09:24.059Z,49.7
2017-09-11T01:10:25.850Z,49.8
2017-09-11T01:11:27.988Z,49.7
2017-09-11T01:12:29.427Z,49.7
2017-09-11T01:13:30.552Z,50
2017-09-11T01:14:32.389Z,49.8
2017-09-11T01:15:34.194Z,50
2017-09-11T01:16:36.320Z,49.7
2017-09-11T01:17:38.113Z,49.9
2017-09-11T01:18:40.241Z,49.5
2017-09-11T01:19:42.048Z,49.7
2017-09-11T01:20:43.500Z,49.7
2017-09-11T01:21:45.269Z,49.6
2017-09-11T01:22:47.398Z,49.7
2017-09-11T01:23:48.830Z,49.9
2017-09-11T01:24:49.932Z,49.6
2017-09-11T01:25:51.704Z,49.6
2017-09-11T01:26:53.501Z,49.8
2017-09-11T01:27:54.940Z,49.8
2017-09-11T01:28:56.062Z,49.7
2017-09-11T01:29:57.833Z,49.5
2017-09-11T01:30:58.971Z,49.8
2017-09-11T01:32:00.429Z,49.8
2017-09-11T01:33:02.557Z,49.8
2017-09-11T01:34:04.020Z,49.7
2017-09-11T01:35:05.455Z,49.6
2017-09-11T01:36:07.251Z,49.7
2017-09-11T01:37:08.712Z,49.8
2017-09-11T01:38:10.509Z,49.6
2017-09-11T01:39:11.967Z,49.6
2017-09-11T01:40:13.734Z,49.7
2017-09-11T01:41:15.859Z,49.7
2017-09-11T01:42:17.657Z,49.7
2017-09-11T01:43:19.102Z,49.6
2017-09-11T01:44:20.576Z,49.6
2017-09-11T01:45:22.034Z,49.8
2017-09-11T01:46:23.138Z,49.7
2017-09-11T01:47:24.576Z,49.8
2017-09-11T01:48:26.394Z,49.7
2017-09-11T01:49:28.187Z,49.7
2017-09-11T01:50:30.319Z,50.2
2017-09-11T01:51:31.753Z,49.7
2017-09-11T01:52:33.544Z,50.1
2017-09-11T01:53:34.647Z,50
2017-09-11T01:54:36.420Z,49.7
2017-09-11T01:55:38.551Z,49.6
2017-09-11T01:56:40.346Z,49.5
2017-09-11T01:57:42.115Z,49.6
2017-09-11T01:58:43.907Z,50
2017-09-11T01:59:45.678Z,50.2
2017-09-11T02:00:47.119Z,49.6
2017-09-11T02:01:49.243Z,49.7
2017-09-11T02:02:51.371Z,49.7
2017-09-11T02:03:53.165Z,49.6
2017-09-11T02:04:54.962Z,49.9
2017-09-11T02:05:57.093Z,50.3
2017-09-11T02:06:58.908Z,49.6
2017-09-11T02:08:00.354Z,49.6
2017-09-11T02:09:01.812Z,49.6
2017-09-11T02:10:02.922Z,49.6
2017-09-11T02:11:04.022Z,49.6
2017-09-11T02:12:05.813Z,49.8
2017-09-11T02:13:06.916Z,49.8
2017-09-11T02:14:08.688Z,49.7
2017-09-11T02:15:09.796Z,50.1
2017-09-11T02:16:11.566Z,49.8
2017-09-11T02:17:13.368Z,49.7
2017-09-11T02:18:15.491Z,49.8
2017-09-11T02:19:16.927Z,49.7
2017-09-11T02:20:18.053Z,50.1
2017-09-11T02:21:19.511Z,49.9
2017-09-11T02:22:20.972Z,50
2017-09-11T02:23:22.765Z,50
2017-09-11T02:24:24.560Z,49.9
2017-09-11T02:25:26.687Z,49.8
2017-09-11T02:26:28.483Z,49.6
2017-09-11T02:27:30.278Z,50
2017-09-11T02:28:32.071Z,49.6
2017-09-11T02:29:33.509Z,49.6
2017-09-11T02:30:35.299Z,50
2017-09-11T02:31:36.757Z,49.9
2017-09-11T02:32:38.887Z,49.6
2017-09-11T02:33:40.694Z,49.6
2017-09-11T02:34:42.486Z,49.7
2017-09-11T02:35:44.259Z,49.6
2017-09-11T02:36:45.362Z,49.6
2017-09-11T02:37:47.127Z,49.7
2017-09-11T02:38:48.918Z,49.7
2017-09-11T02:39:51.046Z,49.5
2017-09-11T02:40:52.816Z,49.7
2017-09-11T02:41:54.944Z,49.9
2017-09-11T02:42:57.071Z,50.2
2017-09-11T02:43:58.205Z,49.6
2017-09-11T02:44:59.632Z,49.6
2017-09-11T02:46:01.444Z,49.6
2017-09-11T02:47:03.235Z,49.8
2017-09-11T02:48:05.364Z,50
2017-09-11T02:49:06.799Z,50.1
2017-09-11T02:50:07.898Z,49.7
2017-09-11T02:51:09.352Z,50
2017-09-11T02:52:11.135Z,49.8
2017-09-11T02:53:12.930Z,50.1
2017-09-11T02:54:14.054Z,49.6
2017-09-11T02:55:15.512Z,49.6
2017-09-11T02:56:17.304Z,49.5
2017-09-11T02:57:19.096Z,49.6
2017-09-11T02:58:20.872Z,49.6
2017-09-11T02:59:22.327Z,49.8
2017-09-11T03:00:24.457Z,49.7
2017-09-11T03:01:26.248Z,49.6
2017-09-11T03:02:28.374Z,49.8
2017-09-11T03:03:30.167Z,49.7
2017-09-11T03:04:31.601Z,50.2
2017-09-11T03:05:33.060Z,50.3
2017-09-11T03:06:34.512Z,49.5
2017-09-11T03:07:36.310Z,49.6
2017-09-11T03:08:38.438Z,49.7
2017-09-11T03:09:40.570Z,49.6
2017-09-11T03:10:42.693Z,49.6
2017-09-11T03:11:44.486Z,49.7
2017-09-11T03:12:46.279Z,49.8
2017-09-11T03:13:48.074Z,49.6
2017-09-11T03:14:50.204Z,49.7
2017-09-11T03:15:51.995Z,49.7
2017-09-11T03:16:53.456Z,49.8
2017-09-11T03:17:55.585Z,49.9
2017-09-11T03:18:57.024Z,49.8
2017-09-11T03:19:59.152Z,50.1
2017-09-11T03:21:00.593Z,50.1
2017-09-11T03:22:02.721Z,50.1
2017-09-11T03:23:04.160Z,50
2017-09-11T03:24:05.618Z,49.9
2017-09-11T03:25:07.054Z,50.1
2017-09-11T03:26:09.180Z,50.1
2017-09-11T03:27:10.615Z,50
2017-09-11T03:28:12.051Z,50
2017-09-11T03:29:13.510Z,50.1
2017-09-11T03:30:15.304Z,50
2017-09-11T03:31:17.432Z,50.2
2017-09-11T03:32:19.202Z,49.9
2017-09-11T03:33:20.994Z,49.8
2017-09-11T03:34:22.102Z,49.8
2017-09-11T03:35:23.877Z,50
2017-09-11T03:36:26.005Z,49.8
2017-09-11T03:37:27.467Z,49.8
2017-09-11T03:38:29.260Z,49.8
2017-09-11T03:39:31.387Z,49.9
2017-09-11T03:40:33.180Z,49.8
2017-09-11T03:41:34.953Z,49.7
2017-09-11T03:42:36.412Z,49.8
2017-09-11T03:43:38.540Z,49.7
2017-09-11T03:44:40.310Z,49.7
2017-09-11T03:45:41.770Z,50
2017-09-11T03:46:43.542Z,50
2017-09-11T03:47:45.005Z,49.7
2017-09-11T03:48:46.777Z,49.9
2017-09-11T03:49:47.895Z,49.8
2017-09-11T03:50:49.669Z,49.9
2017-09-11T03:51:51.466Z,49.8
2017-09-11T03:52:53.262Z,50.1
2017-09-11T03:53:54.701Z,50.1
2017-09-11T03:54:56.496Z,50.2
2017-09-11T03:55:57.954Z,49.9
2017-09-11T03:56:59.391Z,50
2017-09-11T03:58:01.521Z,50.2
2017-09-11T03:59:03.662Z,50.1
2017-09-11T04:00:05.457Z,49.9
2017-09-11T04:01:06.889Z,50.2
2017-09-11T04:02:08.684Z,50.2
2017-09-11T04:03:09.809Z,50.1
2017-09-11T04:04:11.247Z,50.2
2017-09-11T04:05:13.373Z,50.1
2017-09-11T04:06:15.148Z,50.1
2017-09-11T04:07:17.274Z,50.4
2017-09-11T04:08:18.392Z,50.2
2017-09-11T04:09:20.186Z,50.4
2017-09-11T04:10:22.312Z,50
2017-09-11T04:11:24.441Z,50.1
2017-09-11T04:12:25.546Z,50.3
2017-09-11T04:13:27.341Z,49.9
2017-09-11T04:14:28.802Z,50.2
2017-09-11T04:15:30.576Z,50.1
2017-09-11T04:16:32.396Z,50.4
2017-09-11T04:17:34.162Z,50.2
2017-09-11T04:18:36.289Z,50.2
2017-09-11T04:19:38.082Z,50.2
2017-09-11T04:20:39.542Z,50.3
2017-09-11T04:21:41.334Z,50.3
2017-09-11T04:22:42.770Z,50.2
2017-09-11T04:23:44.900Z,50.3
2017-09-11T04:24:46.691Z,50.3
2017-09-11T04:25:48.486Z,50.1
2017-09-11T04:26:50.277Z,50.1
2017-09-11T04:27:52.071Z,50.3
2017-09-11T04:28:53.862Z,50.2
2017-09-11T04:29:55.321Z,50.3
2017-09-11T04:30:56.464Z,50.3
2017-09-11T04:31:58.593Z,50.1
2017-09-11T04:33:00.718Z,50.3
2017-09-11T04:34:02.844Z,50.2
2017-09-11T04:35:04.302Z,50.2
2017-09-11T04:36:06.097Z,50.4
2017-09-11T04:37:07.902Z,50.3
2017-09-11T04:38:10.025Z,50.3
2017-09-11T04:39:11.818Z,50.3
2017-09-11T04:40:13.611Z,50.3
2017-09-11T04:41:15.061Z,50.3
2017-09-11T04:42:17.190Z,50.3
2017-09-11T04:43:18.647Z,50
2017-09-11T04:44:20.443Z,50.2
2017-09-11T04:45:22.235Z,50.3
2017-09-11T04:46:23.335Z,50.2
2017-09-11T04:47:25.128Z,50.4
2017-09-11T04:48:26.563Z,50.1
2017-09-11T04:49:28.334Z,50.4
2017-09-11T04:50:30.104Z,50.2
2017-09-11T04:51:31.568Z,50.2
2017-09-11T04:52:33.693Z,50.4
2017-09-11T04:53:35.466Z,50.1
2017-09-11T04:54:36.902Z,50.5
2017-09-11T04:55:38.705Z,50.6
2017-09-11T04:56:40.545Z,50.5
2017-09-11T04:57:42.336Z,50.2
2017-09-11T04:58:44.133Z,50.5
2017-09-11T04:59:45.589Z,50.5
2017-09-11T05:00:47.383Z,50.4
2017-09-11T05:01:48.842Z,50.5
2017-09-11T05:02:51.011Z,50.4
2017-09-11T05:03:52.109Z,50.4
2017-09-11T05:04:53.904Z,50.6
2017-09-11T05:05:55.696Z,50.5
2017-09-11T05:06:57.508Z,50.5
2017-09-11T05:07:58.967Z,50.1
2017-09-11T05:09:01.096Z,50.5
2017-09-11T05:10:02.892Z,50.4
2017-09-11T05:11:04.350Z,50.3
2017-09-11T05:12:06.250Z,50.5
2017-09-11T05:13:08.379Z,50.6
2017-09-11T05:14:10.175Z,50.5
2017-09-11T05:15:11.610Z,50.4
2017-09-11T05:16:13.404Z,50.2
2017-09-11T05:17:15.200Z,50.5
2017-09-11T05:18:16.305Z,50.6
2017-09-11T05:19:18.100Z,50.6
2017-09-11T05:20:19.562Z,50.5
2017-09-11T05:21:21.335Z,50.5
2017-09-11T05:22:23.105Z,50.4
2017-09-11T05:23:25.237Z,50.4
2017-09-11T05:24:27.030Z,50.4
2017-09-11T05:25:28.492Z,50.5
2017-09-11T05:26:30.287Z,50.5
2017-09-11T05:27:32.411Z,50.5
2017-09-11T05:28:33.518Z,50.3
2017-09-11T05:29:34.958Z,50.5
2017-09-11T05:30:36.398Z,50.5
2017-09-11T05:31:38.172Z,50.5
2017-09-11T05:32:39.656Z,50.7
2017-09-11T05:33:41.092Z,50.5
2017-09-11T05:34:43.222Z,50.5
2017-09-11T05:35:45.013Z,50.2
2017-09-11T05:36:46.805Z,50.6
2017-09-11T05:37:48.244Z,50.8
2017-09-11T05:38:50.041Z,50.5
2017-09-11T05:39:51.482Z,50.6
2017-09-11T05:40:53.252Z,50.7
2017-09-11T05:41:54.359Z,50.2
2017-09-11T05:42:56.156Z,50.5
2017-09-11T05:43:58.284Z,50.6
2017-09-11T05:44:59.743Z,50.6
2017-09-11T05:46:01.518Z,50.3
2017-09-11T05:47:03.312Z,50.3
2017-09-11T05:48:04.767Z,50.2
2017-09-11T05:49:05.902Z,50.3
2017-09-11T05:50:07.694Z,50.1
2017-09-11T05:51:09.492Z,50.3
2017-09-11T05:52:11.284Z,50.1
2017-09-11T05:53:13.074Z,50.2
2017-09-11T05:54:14.530Z,50.5
2017-09-11T05:55:16.326Z,50.6
2017-09-11T05:56:18.458Z,50.5
2017-09-11T05:57:19.561Z,50.4
2017-09-11T05:58:21.356Z,50.4
2017-09-11T05:59:22.793Z,50.5
2017-09-11T06:00:24.589Z,50.6
2017-09-11T06:01:26.049Z,50.8
2017-09-11T06:02:27.848Z,50.5
2017-09-11T06:03:29.282Z,50.4
2017-09-11T06:04:30.384Z,50.5
2017-09-11T06:05:32.161Z,50.6
2017-09-11T06:06:33.607Z,50.5
2017-09-11T06:07:35.040Z,50.4
2017-09-11T06:08:36.165Z,50.9
2017-09-11T06:09:38.295Z,50.4
2017-09-11T06:10:40.092Z,50.3
2017-09-11T06:11:41.528Z,50.3
2017-09-11T06:12:43.325Z,50.2
2017-09-11T06:13:45.449Z,50.1
2017-09-11T06:14:47.246Z,50.4
2017-09-11T06:15:49.372Z,50.3
2017-09-11T06:16:51.180Z,50.5
2017-09-11T06:17:52.616Z,50.9
2017-09-11T06:18:54.414Z,50.7
2017-09-11T06:19:56.538Z,50.9
2017-09-11T06:20:58.665Z,50.3
2017-09-11T06:22:00.440Z,50.4
2017-09-11T06:23:02.569Z,50.5
2017-09-11T06:24:04.027Z,50.8
2017-09-11T06:25:05.827Z,50.3
2017-09-11T06:26:07.276Z,50.6
2017-09-11T06:27:08.738Z,50.6
2017-09-11T06:28:10.530Z,50.4
2017-09-11T06:29:12.322Z,50.6
2017-09-11T06:30:14.117Z,50.5
2017-09-11T06:31:15.215Z,50.8
2017-09-11T06:32:16.988Z,50.2
2017-09-11T06:33:19.115Z,50.2
2017-09-11T06:34:20.909Z,50.6
2017-09-11T06:35:22.373Z,50.2
2017-09-11T06:36:24.168Z,50.3
2017-09-11T06:37:26.297Z,50.4
2017-09-11T06:38:28.094Z,50.4
2017-09-11T06:39:29.568Z,50.4
2017-09-11T06:40:31.370Z,50.3
2017-09-11T06:41:32.481Z,50.3
2017-09-11T06:42:33.953Z,50.5
2017-09-11T06:43:34.732Z,50.4
2017-09-11T06:44:36.198Z,50.5
2017-09-11T06:45:37.640Z,50.3
2017-09-11T06:46:39.437Z,50.8
2017-09-11T06:47:40.882Z,50.3
2017-09-11T06:48:43.016Z,50.4
2017-09-11T06:49:44.813Z,50.4
2017-09-11T06:50:46.614Z,50.6
2017-09-11T06:51:48.412Z,51
2017-09-11T06:52:50.195Z,50.6
2017-09-11T06:53:51.657Z,50.6
2017-09-11T06:54:52.767Z,50.6
2017-09-11T06:55:54.565Z,50.6
2017-09-11T06:56:56.360Z,50.7
2017-09-11T06:57:57.467Z,51.1
2017-09-11T06:58:59.242Z,50.7
2017-09-11T07:00:01.058Z,50.9
2017-09-11T07:01:02.854Z,50.8
2017-09-11T07:02:03.962Z,50.9
2017-09-11T07:03:05.763Z,51.1
2017-09-11T07:04:06.548Z,51
2017-09-11T07:05:08.682Z,50.7
2017-09-11T07:06:10.478Z,50.7
2017-09-11T07:07:12.254Z,50.7
2017-09-11T07:08:14.049Z,50.7
2017-09-11T07:09:15.822Z,50.8
2017-09-11T07:10:17.595Z,50.7
2017-09-11T07:11:19.374Z,51
2017-09-11T07:12:21.502Z,50.9
2017-09-11T07:13:23.297Z,50.9
2017-09-11T07:14:24.772Z,50.7
2017-09-11T07:15:26.897Z,50.7
2017-09-11T07:16:28.691Z,50.7
2017-09-11T07:17:30.818Z,51
2017-09-11T07:18:32.953Z,51
2017-09-11T07:19:35.084Z,50.6
2017-09-11T07:20:36.877Z,50.6
2017-09-11T07:21:38.668Z,51
2017-09-11T07:22:40.466Z,51
2017-09-11T07:23:42.258Z,50.7
2017-09-11T07:24:44.056Z,50.7
2017-09-11T07:25:45.856Z,50.6
2017-09-11T07:26:47.321Z,51
2017-09-11T07:27:48.807Z,50.9
2017-09-11T07:28:50.584Z,50.8
2017-09-11T07:29:52.381Z,50.7
2017-09-11T07:30:54.275Z,50.6
2017-09-11T07:31:56.069Z,50.7
2017-09-11T07:32:58.202Z,50.7
2017-09-11T07:34:00.327Z,50.7
2017-09-11T07:35:02.124Z,50.7
2017-09-11T07:36:03.259Z,50.6
2017-09-11T07:37:05.033Z,50.7
2017-09-11T07:38:06.804Z,50.7
2017-09-11T07:39:07.910Z,50.8
2017-09-11T07:40:10.038Z,50.8
2017-09-11T07:41:11.818Z,51
2017-09-11T07:42:13.617Z,51
2017-09-11T07:43:15.078Z,51.1
2017-09-11T07:44:17.205Z,51.3
2017-09-11T07:45:18.318Z,50.9
2017-09-11T07:46:19.439Z,50.9
2017-09-11T07:47:20.881Z,51
2017-09-11T07:48:23.253Z,51.3
2017-09-11T07:49:25.040Z,51.1
2017-09-11T07:50:27.175Z,51.1
2017-09-11T07:51:28.299Z,51.5
2017-09-11T07:52:29.744Z,51.1
2017-09-11T07:53:31.879Z,51.1
2017-09-11T07:54:33.673Z,51.3
2017-09-11T07:55:35.447Z,51
2017-09-11T07:56:37.245Z,51.3
2017-09-11T07:57:38.735Z,51.3
2017-09-11T07:58:40.549Z,51.4
2017-09-11T07:59:41.661Z,51.2
2017-09-11T08:00:43.121Z,51.3
2017-09-11T08:01:44.919Z,51.1
2017-09-11T08:02:46.716Z,51.3
2017-09-11T08:03:48.186Z,51.1
2017-09-11T08:04:49.987Z,51.3
2017-09-11T08:05:51.448Z,51.3
2017-09-11T08:07:24.672Z,51.1
2017-09-11T08:08:26.118Z,51.3
2017-09-11T08:09:27.915Z,51.6
2017-09-11T08:10:29.377Z,51.1
2017-09-11T08:11:31.182Z,51.2
2017-09-11T08:12:32.980Z,51.2
2017-09-11T08:13:34.784Z,51.1
2017-09-11T08:14:36.233Z,51.3
2017-09-11T08:15:37.440Z,51.2
2017-09-11T08:16:39.616Z,51.2
2017-09-11T08:17:41.982Z,51.3
2017-09-11T08:18:43.927Z,51.2
2017-09-11T08:19:45.370Z,51.1
2017-09-11T08:20:47.144Z,51.2
2017-09-11T08:21:48.912Z,51.1
2017-09-11T08:22:50.835Z,51.3
2017-09-11T08:23:53.103Z,51.3
2017-09-11T08:24:54.566Z,51.2
2017-09-11T08:25:56.344Z,51.3
2017-09-11T08:26:57.791Z,51.6
2017-09-11T08:27:59.247Z,51.6
2017-09-11T08:29:00.706Z,51.8
2017-09-11T08:30:02.836Z,51.7
2017-09-11T08:31:04.968Z,51.6
2017-09-11T08:32:06.746Z,51.5
2017-09-11T08:33:07.856Z,51.3
2017-09-11T08:34:09.660Z,51.5
2017-09-11T08:35:11.454Z,51.6
2017-09-11T08:36:12.912Z,51.3
2017-09-11T08:37:14.353Z,51.7
2017-09-11T08:38:15.536Z,51.7
2017-09-11T08:39:16.645Z,51.5
2017-09-11T08:40:18.114Z,51.8
2017-09-11T08:41:20.251Z,51.7
2017-09-11T08:42:21.715Z,51.7
2017-09-11T08:43:23.566Z,51.8
2017-09-11T08:44:25.063Z,51.9
2017-09-11T08:45:26.192Z,51.9
2017-09-11T08:46:27.966Z,52
2017-09-11T08:47:30.099Z,51.7
2017-09-11T08:48:31.876Z,52.3
2017-09-11T08:49:33.322Z,51.8
2017-09-11T08:50:35.117Z,51.9
2017-09-11T08:51:36.580Z,52.3
2017-09-11T08:52:38.378Z,51.8
2017-09-11T08:53:40.517Z,51.8
2017-09-11T08:54:42.313Z,51.8
2017-09-11T08:55:44.443Z,51.8
2017-09-11T08:56:46.570Z,51.9
2017-09-11T08:57:48.101Z,52
2017-09-11T08:58:49.991Z,52.1
2017-09-11T08:59:52.120Z,52.4
2017-09-11T09:00:53.263Z,52.1
2017-09-11T09:01:55.065Z,51.9
2017-09-11T09:02:56.867Z,51.8
2017-09-11T09:03:58.667Z,51.9
2017-09-11T09:04:59.803Z,51.8
2017-09-11T09:06:01.940Z,51.8
2017-09-11T09:07:03.740Z,51.7
2017-09-11T09:08:05.537Z,52.1
2017-09-11T09:09:07.333Z,51.8
2017-09-11T09:10:09.115Z,51.9
2017-09-11T09:11:10.917Z,51.8
2017-09-11T09:12:13.047Z,52
2017-09-11T09:13:14.159Z,52.2
2017-09-11T09:14:16.290Z,51.7
2017-09-11T09:15:18.091Z,51.7
2017-09-11T09:16:19.888Z,51.6
2017-09-11T09:17:21.665Z,51.7
2017-09-11T09:18:23.106Z,51.9
2017-09-11T09:19:24.551Z,51.4
2017-09-11T09:20:26.346Z,51.7
2017-09-11T09:21:28.140Z,51.7
2017-09-11T09:22:29.940Z,51.8
2017-09-11T09:23:31.734Z,51.4
2017-09-11T09:24:33.864Z,51.5
2017-09-11T09:25:35.660Z,51.9
2017-09-11T09:26:37.790Z,51.4
2017-09-11T09:27:39.589Z,52
2017-09-11T09:28:41.052Z,51.9
2017-09-11T09:29:42.848Z,51.9
2017-09-11T09:30:44.295Z,51.5
2017-09-11T09:31:46.425Z,51.4
2017-09-11T09:32:48.224Z,51.8
2017-09-11T09:33:49.695Z,51.6
2017-09-11T09:34:51.830Z,51.6
2017-09-11T09:35:53.607Z,51.4
2017-09-11T09:36:55.069Z,51.2
2017-09-11T09:37:56.844Z,51.4
2017-09-11T09:38:58.320Z,51.8
2017-09-11T09:39:59.788Z,51.4
2017-09-11T09:41:01.585Z,51.2
2017-09-11T09:42:03.717Z,51.4
2017-09-11T09:43:05.512Z,51.4
2017-09-11T09:44:07.660Z,51.2
2017-09-11T09:45:09.128Z,51.3
2017-09-11T09:46:11.316Z,51.9
2017-09-11T09:47:13.530Z,51.8
2017-09-11T09:48:15.360Z,51.3
2017-09-11T09:49:16.891Z,51.8
2017-09-11T09:50:18.646Z,51.3
2017-09-11T09:51:20.513Z,51.5
2017-09-11T09:52:21.974Z,51.6
2017-09-11T09:53:23.082Z,51.3
2017-09-11T09:54:24.877Z,51.8
2017-09-11T09:55:26.651Z,51.4
2017-09-11T09:56:28.781Z,51.8
2017-09-11T09:57:30.560Z,51.3
2017-09-11T09:58:32.692Z,51.5
2017-09-11T09:59:34.134Z,51.5
2017-09-11T10:00:35.932Z,51.4
2017-09-11T10:01:37.041Z,51.9
2017-09-11T10:02:38.837Z,51.9
2017-09-11T10:03:40.278Z,51.4
2017-09-11T10:04:42.079Z,51.5
2017-09-11T10:05:44.255Z,51.8
2017-09-11T10:06:46.036Z,51.4
2017-09-11T10:07:47.843Z,51.7
2017-09-11T10:08:48.612Z,51.8
2017-09-11T10:09:50.741Z,51.8
2017-09-11T10:10:52.538Z,51.3
2017-09-11T10:11:54.713Z,51.9
2017-09-11T10:12:56.632Z,51.3
2017-09-11T10:13:58.766Z,51.4
2017-09-11T10:15:00.210Z,51.3
2017-09-11T10:16:02.345Z,51.3
2017-09-11T10:17:04.487Z,51.6
2017-09-11T10:18:06.308Z,51.9
2017-09-11T10:19:07.781Z,51.2
2017-09-11T10:20:09.759Z,51.3
2017-09-11T10:21:11.232Z,51.3
2017-09-11T10:22:13.028Z,51.1
2017-09-11T10:23:15.164Z,51.2
2017-09-11T10:24:16.292Z,51.3
2017-09-11T10:25:18.091Z,51.3
2017-09-11T10:26:20.222Z,51.6
2017-09-11T10:27:21.997Z,51.3
2017-09-11T10:28:23.790Z,51.3
2017-09-11T10:29:25.922Z,51
2017-09-11T10:30:27.726Z,51.9
2017-09-11T10:31:29.166Z,51.2
2017-09-11T10:32:30.964Z,51.2
2017-09-11T10:33:32.758Z,51.4
2017-09-11T10:34:34.557Z,51.5
2017-09-11T10:35:36.001Z,51.9
2017-09-11T10:36:37.796Z,51.9
2017-09-11T10:37:39.237Z,51.4
2017-09-11T10:38:41.367Z,51.9
2017-09-11T10:39:42.831Z,51.3
2017-09-11T10:40:44.958Z,51.6
2017-09-11T10:41:46.400Z,51.5
2017-09-11T10:42:47.838Z,51.7
2017-09-11T10:43:49.973Z,51.4
2017-09-11T10:44:52.106Z,51.8
2017-09-11T10:45:53.551Z,51.8
2017-09-11T10:46:55.056Z,51.7
2017-09-11T10:47:56.527Z,51.8
2017-09-11T10:48:57.967Z,51.4
2017-09-11T10:49:59.406Z,51.4
2017-09-11T10:51:01.201Z,51.4
2017-09-11T10:52:03.332Z,51.4
2017-09-11T10:53:05.463Z,51.4
2017-09-11T10:54:07.594Z,51.5
2017-09-11T10:55:09.033Z,51.8
2017-09-11T10:56:10.476Z,51.7
2017-09-11T10:57:12.035Z,51.3
2017-09-11T10:58:14.167Z,51.5
2017-09-11T10:59:15.964Z,51.4
2017-09-11T11:00:17.087Z,51.4
2017-09-11T11:01:18.866Z,51.5
2017-09-11T11:02:20.661Z,51.4
2017-09-11T11:03:22.145Z,51.4
2017-09-11T11:04:23.610Z,51.4
2017-09-11T11:05:25.413Z,51.4
2017-09-11T11:06:27.214Z,51.5
2017-09-11T11:07:29.013Z,51.5
2017-09-11T11:08:30.811Z,51.4
2017-09-11T11:09:32.279Z,51.1
2017-09-11T11:10:34.412Z,51.1
2017-09-11T11:11:35.523Z,51.3
2017-09-11T11:12:37.322Z,51.3
2017-09-11T11:13:39.098Z,51.6
2017-09-11T11:14:40.542Z,51.2
2017-09-11T11:15:42.337Z,51.4
2017-09-11T11:16:44.472Z,51.2
2017-09-11T11:17:45.933Z,50.8
2017-09-11T11:18:47.731Z,51.3
2017-09-11T11:19:48.835Z,50.8
2017-09-11T11:20:50.319Z,51
2017-09-11T11:21:52.452Z,50.9
2017-09-11T11:22:53.899Z,51.3
2017-09-11T11:23:55.362Z,51.2
2017-09-11T11:24:56.821Z,50.9
2017-09-11T11:25:58.283Z,50.9
2017-09-11T11:27:00.077Z,51.4
2017-09-11T11:28:01.515Z,51.4
2017-09-11T11:29:03.291Z,50.9
2017-09-11T11:30:05.422Z,50.9
2017-09-11T11:31:06.884Z,51.5
2017-09-11T11:32:09.014Z,51.4
2017-09-11T11:33:10.454Z,51
2017-09-11T11:34:12.585Z,50.9
2017-09-11T11:35:14.378Z,50.9
2017-09-11T11:36:16.508Z,51.3
2017-09-11T11:37:17.979Z,50.8
2017-09-11T11:38:19.775Z,50.9
2017-09-11T11:39:21.215Z,51.3
2017-09-11T11:40:23.346Z,50.8
2017-09-11T11:41:24.476Z,50.8
2017-09-11T11:42:25.584Z,50.7
2017-09-11T11:43:27.046Z,50.8
2017-09-11T11:44:28.482Z,50.8
2017-09-11T11:45:30.285Z,50.6
2017-09-11T11:46:32.073Z,50.7
2017-09-11T11:47:33.510Z,50.6
2017-09-11T11:48:34.948Z,51
2017-09-11T11:49:36.056Z,50.7
2017-09-11T11:50:38.185Z,50.8
2017-09-11T11:51:40.322Z,50.7
2017-09-11T11:52:42.452Z,50.7
2017-09-11T11:53:44.248Z,50.7
2017-09-11T11:54:45.687Z,50.7
2017-09-11T11:55:47.487Z,50.7
2017-09-11T11:56:49.284Z,50.5
2017-09-11T11:57:51.414Z,50.7
2017-09-11T11:58:52.876Z,51.1
2017-09-11T11:59:54.317Z,50.7
2017-09-11T12:00:55.448Z,50.7
2017-09-11T12:01:57.240Z,50.6
2017-09-11T12:02:59.058Z,50.7
2017-09-11T12:04:00.939Z,50.7
2017-09-11T12:05:02.735Z,50.6
2017-09-11T12:06:04.527Z,50.9
2017-09-11T12:07:06.322Z,50.7
2017-09-11T12:08:08.097Z,50.6
2017-09-11T12:09:09.198Z,50.7
2017-09-11T12:10:10.992Z,50.5
2017-09-11T12:11:12.765Z,50.1
2017-09-11T12:12:14.229Z,50.5
2017-09-11T12:13:16.023Z,50.5
2017-09-11T12:14:17.141Z,50.6
2017-09-11T12:15:18.930Z,50.4
2017-09-11T12:16:20.385Z,50.5
2017-09-11T12:17:22.182Z,50.4
2017-09-11T12:18:23.978Z,50.4
2017-09-11T12:19:24.745Z,50.5
2017-09-11T12:20:26.187Z,50.9
2017-09-11T12:21:27.981Z,50.5
2017-09-11T12:22:29.419Z,50.5
2017-09-11T12:23:31.191Z,50.4
2017-09-11T12:24:32.657Z,50.7
2017-09-11T12:25:34.453Z,50.3
2017-09-11T12:26:35.896Z,50.5
2017-09-11T12:27:38.019Z,50.2
2017-09-11T12:28:39.481Z,50.5
2017-09-11T12:29:41.281Z,50.3
2017-09-11T12:30:42.750Z,50.6
2017-09-11T12:31:44.526Z,50.7
2017-09-11T12:32:45.633Z,50.5
2017-09-11T12:33:47.430Z,50.5
2017-09-11T12:34:49.607Z,50.4
2017-09-11T12:35:51.744Z,50.5
2017-09-11T12:36:53.202Z,50.5
2017-09-11T12:37:55.333Z,50.2
2017-09-11T12:38:56.777Z,50.5
2017-09-11T12:39:58.574Z,50.3
2017-09-11T12:41:00.703Z,50.4
2017-09-11T12:42:02.833Z,50.5
2017-09-11T12:43:04.632Z,50.3
2017-09-11T12:44:06.068Z,50.3
2017-09-11T12:45:07.868Z,50.3
2017-09-11T12:46:09.328Z,50.3
2017-09-11T12:47:11.103Z,50.3
2017-09-11T12:48:12.542Z,50.5
2017-09-11T12:49:14.316Z,50.4
2017-09-11T12:50:15.779Z,50.5
2017-09-11T12:51:17.569Z,50.3
2017-09-11T12:52:19.367Z,50.4
2017-09-11T12:53:21.160Z,50.3
2017-09-11T12:54:23.290Z,50.2
2017-09-11T12:55:24.733Z,50.3
2017-09-11T12:56:26.862Z,50.2
2017-09-11T12:57:28.640Z,50.4
2017-09-11T12:58:30.438Z,50.1
2017-09-11T12:59:31.900Z,50.2
2017-09-11T13:00:33.002Z,50.2
2017-09-11T13:01:34.798Z,50.3
2017-09-11T13:02:35.908Z,50.1
2017-09-11T13:03:37.705Z,50
2017-09-11T13:04:39.833Z,50.1
2017-09-11T13:05:41.960Z,50.1
2017-09-11T13:06:44.089Z,50.1
2017-09-11T13:07:45.892Z,50.2
2017-09-11T13:08:47.351Z,49.9
2017-09-11T13:09:49.149Z,50.2
2017-09-11T13:10:50.927Z,50.2
2017-09-11T13:11:52.724Z,49.8
2017-09-11T13:12:54.521Z,50.1
2017-09-11T13:13:56.294Z,49.9
2017-09-11T13:14:58.072Z,50.2
2017-09-11T13:15:59.528Z,49.8
2017-09-11T13:17:00.635Z,49.8
2017-09-11T13:18:02.084Z,50
2017-09-11T13:19:03.860Z,50.2
2017-09-11T13:20:05.317Z,49.8
2017-09-11T13:21:06.474Z,49.7
2017-09-11T13:22:07.599Z,49.8
2017-09-11T13:23:09.390Z,50.2
2017-09-11T13:24:10.854Z,49.7
2017-09-11T13:25:12.320Z,49.8
2017-09-11T13:26:14.118Z,49.8
2017-09-11T13:27:15.896Z,49.8
2017-09-11T13:28:18.026Z,49.8
2017-09-11T13:29:19.129Z,49.7
2017-09-11T13:30:21.260Z,49.8
2017-09-11T13:31:23.033Z,49.9
2017-09-11T13:32:24.496Z,49.9
2017-09-11T13:33:25.955Z,49.7
2017-09-11T13:34:27.755Z,49.8
2017-09-11T13:35:29.523Z,50.2
2017-09-11T13:36:30.989Z,49.8
2017-09-11T13:37:32.763Z,49.9
2017-09-11T13:38:34.561Z,50.1
2017-09-11T13:39:36.355Z,49.8
2017-09-11T13:40:38.486Z,50.4
2017-09-11T13:41:39.945Z,50.1
2017-09-11T13:42:41.052Z,49.9
2017-09-11T13:43:42.516Z,49.8
2017-09-11T13:44:44.314Z,49.7